Weather at Giengen/Brenz Airport

Public forecast

Using degrees Celsius for public forecast. Weather courtesy of forecast.io.

Closest aviation weather report (METAR) to Giengen/Brenz Airport

Closest report is Laupheim Air Base, 27.7 nm (51.3 km) SSW.

2022/11/27 01:20 (retrieved 15 minutes ago)

ETHL 270120Z AUTO 00000KT 0100 // ////// M02/M03 Q1029 ///

Closest aviation forecast (TAF) to Giengen/Brenz Airport

Forecast is more than 6 hours old.

Closest forecast is Dübendorf Air Base, 97.3 nm (180.2 km) SW.

2022/11/26 17:00 (retrieved 9 hours ago)

TAF LSMD 261625Z 2617/2723 06004KT CAVOK BECMG 2618/2621 4000 BR OVC005 TEMPO 2704/2708 1500 BCFG OVC002 BECMG 2708/2711 5000 BKN008 BECMG 2711/2713 CAVOK